Country
Station

 

Weather  for  Rutland State Automatic Weather Observing/Reporting System  -  United States    United States

  
1 °C (34 °F)
    
 
 

Current METAR for Rutland State Automatic Weather Observing/Reporting System is :

KRUT 161856Z AUTO 00000KT 10SM FEW028 OVC035 01/M03 A2963 RMK AO2 SLP056 T00061033 FZRANO $

 

This is a report for Rutland State Automatic Weather Observing/Reporting System - United States.
 
The report was made 6 minutes ago, at 18:56 UTC .
The wind was calm.
 
The temperature was 1 °C (34 °F), with a dew-point at -3 °C (27 °F).
The atmospheric pressure was 1003 hPa (29.63 inHg).
The relative humidity was 74.6%.
 
There were a few clouds at a height of 853 meters (2800 feet). The sky was overcast from a height of 1067 meter (3500 feet)
 
The overall visibility was 16.1 kilometers (10.0 miles).
 

 
 
 
 

Country :   A   B   C   D   E   F   G   H   I   J   K   L   M   N   O   P   Q   R   S   T   U   V   W   Y   Z

 

Site Info  |  Disclaimer  |  Credits  |  Privacy
Contact us  |  Add to favorites
© 2013-2018 METARs - All rights reserved